This site, now in its 15th season, is a labour of love and fun from one of Ottawa's most avid time trialists and number crunchers. It adheres to and is permitted by the laws of Canada, promotes the objectives of every bicycle club whose results are shown, and is donated free of charge by myself for your enjoyment and usage. If you would like results from series you ride in to be shown here, give me (celia@drmath.ca) a shout!


Index Page
ATT OTT WTT AATT CFCTT VVVTT
Help resultformat:
Case-sensitive

OBC Open TT Series - 2019-Jul-04 - 15km (Rockliffe Pkwy) (EvtFactor = 0.9458)

Ottawa Weather (18:00): Partly Cloudy. Temp.erature: 31.2C, Wind: SSE 7km/h, Humidex: 37, Relative humidity: 45%, Dew point: 18C, Pressure: 101.7kPa, Visibility: 24km.
Ottawa Weather (19:00): Partly Cloudy. Temp.erature: 29.7C, Wind: SSE 7km/h, Humidex: 37, Relative humidity: 55%, Dew point: 20C, Pressure: 101.7kPa, Visibility: 24km.
Ottawa Weather (20:00): Partly Cloudy. Temp.erature: 27.2C, Wind: SE 8km/h, Humidex: 34, Relative humidity: 62%, Dew point: 19C, Pressure: 101.7kPa, Visibility: 24km.

Send photos with description (when/where/what) of yourself on or off of bike to celia@drmath.ca

 
 

BESTS?
 
1 Sherboneau, Mark RWR 19:19 46.592 1/40 VBM 1/9 0.9517
Y 2 Manners, Mark WQW 19:44 45.608 2/40 VAM 1/4 1.1212
3 Boers, Daniel IND 20:25 44.082 3/40 SEM 1/2 1.1435
Y 4 Harrington, Benjamin OBC 20:26 44.046 4/40 JUM 1/1 1.0049
5 Brodeur, Martin OBC 21:29 41.893 5/40 VBM 2/9 0.8375
6 Schuck, Peter  OBC/RWR 21:32 41.796 6/40 VDM 1/5 0.9702
7 Martin, David OBC 21:35 41.699 7/40 VCM 1/7  
8 Girard, Nicolas CDO 21:46 41.348 8/40 CAM 1/1 0.9682
9 Boisvenue, Linda OBC 21:49 41.253 9/40 VBF 1/1 0.9394
10 Till, Michael WQW 21:51 41.190 10/40 VCM 2/7 1.0207
11 Larson, Eric RWR 22:18 40.359 11/40 VBM 3/9  
12 Page, Graham OBC/NTF 22:21 40.268 12/40 VAM 2/4 0.9451
13 Almeralla, Sergio WQW 22:29 40.030 13/40 VBM 4/9 0.9714
14 Christie, Greg  OBC/RWR 22:30 40.000 14/40 VDM 2/5 1.0360
15 Posthuma, Hans  OBC 22:32 39.941 15/40 VDM 3/5 0.9780
16 Haight, Aaron OBC 22:42 39.648 16/40 VAM 3/4  
17 Wright, David EUR 23:02 39.074 17/40 VCM 3/7 0.9763
18 Drouin, Marcel OBC 23:04 39.017 18/40 VCM 4/7 1.0824
19 Manjikian, Sevak OBC 23:10 38.849 19/40 VBM 5/9 1.0685
20 Schmidt, Nicholas OBC 23:18 38.627 20/40 SEM 2/2 1.1205
21 Rivoche, Michael OBC 23:28 38.352 21/40 VDM 4/5 0.9333
22 Lavergne, Jazmine OBC 23:29 38.325 22/40 CAF 1/3 0.9092
23 Williams, Mallory OBC 23:31 38.271 23/40 CAF 2/3 2.1284
24 Arsenault, Ariane OBC 23:35 38.163 24/40 CAF 3/3 0.9439
25 Davis, Doug OBC 23:41 38.001 25/40 VCM 5/7 0.9707
26 Somogyi, Michel OBC 23:47 37.842 26/40 VBM 6/9 0.9045
27 Martins, Alex 613 23:58 37.552 27/40 VBM 7/9 0.7086
28 Hinz, Richard OBC 24:00 37.500 28/40 VDM 5/5 1.1784
29 DeVidi, Robert  OBC 24:29 36.760 29/40 VCM 6/7 0.8730
30 Deschamps, Martin WQW 24:38 36.536 30/40 VBM 8/9 0.9619
31 Véronneau, Marc OBC 24:45 36.364 31/40 VCM 7/7 0.9504
32 Kuronuma, Yuhji OBC 24:53 36.169 32/40 VAM 4/4 1.0182
33 Markel, Dan OBC 25:09 35.785 33/40 VBM 9/9 0.9960
34 Johnson, Byron  OBC 25:25 35.410 34/40 VEM 1/4 1.3610
35 Imbrogno, Giorgio  OBC 25:30 35.294 35/40 VEM 2/4 1.0317
36 Boulanger, Gaetan  IND 25:42 35.019 36/40 VEM 3/4 0.8349
37 Burdett, Avery  OBC 26:09 34.417 37/40 VFM 1/1 0.9273
38 Levi, Cheryl OBC 26:20 34.177 38/40 VCF 1/1 0.9570
39 Moerman, Bram  OBC 27:04 33.251 39/40 VEM 4/4 0.8215
40 McInnis, Celia  OBC 27:47 32.394 40/40 VDF 1/1 0.9281
 
Average Speed of all of the above 40 finishes (600km in 15:34:42):38.515
>>>Average of the Average Speeds for these 40 finishes38.773<<<
 

The number of data records shown above is 40
The server processing of your query took: 0 wallclock secs ( 0.07 usr + 0.00 sys = 0.07 CPU)

Thanks to our Helpers: Michel Bernier, Mark Manners, Alex McKnight, Jess Raymond, Peter Tregunno

     


Apr 19 (Good Friday)
May 2 May 7 (10km) May 9 May 14 (10km) May 16 May 21 (10km) May 23 May 28 May 28 (10km) May 30
Jun 2 (40km) Jun 4 Jun 4 Jun 6 Jun 11 Jun 11 Jun 13 Jun 18 Jun 18 Jun 20 Jun 25 Jun 25 Jun 27 Jun 30 (40km)
Jul 2 Jul 2
  Jul 4  
Jul 9 Jul 9 Jul 11 (cancelled - lightning) Jul 16 Jul 16 Jul 18

OTT Rankings
Best       Best by category
WTT Rankings for All Participants
5 Best Speeds (≥3 15km, ≤1 10km)     5 Best Speeds (≥3 15km, ≤1 10km) by category
OTT Best Three 15km Rankings
Overall     by category     age-Hcap Female   age-Hcap Male
Other years
TT Calculator All TT People All TT events
ABC Home VVV Home
CKAP GOLD MEDAL
Other Links

Note: OTT data from 2003 through 2006-Apr-14 and 2007-Apr-06-? and WTT from 2008-? is taken from the official OBC site.

Please send your comments and suggestions to: Celia McInnis
Copyright © 1998-2011 Celia McInnis. All rights reserved. Links are welcomed.